createdAt,value
2023-03-19T00:01:55.869Z,12.55
2023-03-19T00:04:27.750Z,12.57
2023-03-19T00:06:58.124Z,12.54
2023-03-19T00:09:28.960Z,12.56
2023-03-19T00:11:59.550Z,12.53
2023-03-19T00:14:29.920Z,12.53
2023-03-19T00:17:00.333Z,12.55
2023-03-19T00:19:31.847Z,12.56
2023-03-19T00:22:02.166Z,12.52
2023-03-19T00:24:32.734Z,12.56
2023-03-19T00:27:05.206Z,12.55
2023-03-19T00:29:36.455Z,12.56
2023-03-19T00:32:07.395Z,12.59
2023-03-19T00:34:38.317Z,12.54
2023-03-19T00:37:08.996Z,12.57
2023-03-19T00:39:39.396Z,12.59
2023-03-19T00:42:10.634Z,12.58
2023-03-19T00:44:45.618Z,12.57
2023-03-19T00:47:16.608Z,12.56
2023-03-19T00:49:47.300Z,12.61
2023-03-19T00:52:18.516Z,12.59
2023-03-19T00:54:48.837Z,12.62
2023-03-19T00:57:19.275Z,12.60
2023-03-19T00:59:49.790Z,12.62
2023-03-19T01:02:20.609Z,12.64
2023-03-19T01:04:51.621Z,12.61
2023-03-19T01:07:22.821Z,12.64
2023-03-19T01:09:53.541Z,12.67
2023-03-19T01:12:24.531Z,12.64
2023-03-19T01:14:55.051Z,12.64
2023-03-19T01:17:25.407Z,12.66
2023-03-19T01:19:55.779Z,12.66
2023-03-19T01:22:26.222Z,12.70
2023-03-19T01:25:00.426Z,12.67
2023-03-19T01:27:32.310Z,12.70
2023-03-19T01:30:04.932Z,12.71
2023-03-19T01:33:08.201Z,12.70
2023-03-19T01:36:07.389Z,12.71
2023-03-19T01:38:53.274Z,12.73
2023-03-19T01:41:24.628Z,12.69
2023-03-19T01:43:57.941Z,12.73
2023-03-19T01:46:41.871Z,12.73
2023-03-19T01:49:33.636Z,12.74
2023-03-19T01:52:33.964Z,12.75
2023-03-19T01:55:21.788Z,12.76
2023-03-19T01:58:09.300Z,12.75
2023-03-19T02:01:03.068Z,12.79
2023-03-19T02:03:36.894Z,12.77
2023-03-19T02:06:21.460Z,12.76
2023-03-19T02:08:53.405Z,12.79
2023-03-19T02:11:23.960Z,12.86
2023-03-19T02:13:54.512Z,12.80
2023-03-19T02:16:25.626Z,12.81
2023-03-19T02:18:57.221Z,12.82
2023-03-19T02:21:27.971Z,12.83
2023-03-19T02:24:10.838Z,12.83
2023-03-19T02:26:54.422Z,12.88
2023-03-19T02:29:24.821Z,12.88
2023-03-19T02:31:56.279Z,12.89
2023-03-19T02:34:26.572Z,12.88
2023-03-19T02:37:03.979Z,12.96
2023-03-19T02:39:52.142Z,12.85
2023-03-19T02:42:26.267Z,12.86
2023-03-19T02:44:56.662Z,12.91
2023-03-19T02:47:28.570Z,12.93
2023-03-19T02:49:59.038Z,12.92
2023-03-19T02:52:29.873Z,12.92
2023-03-19T02:55:00.160Z,12.95
2023-03-19T02:57:30.692Z,12.94
2023-03-19T03:00:01.069Z,12.96
2023-03-19T03:02:32.571Z,12.98
2023-03-19T03:05:03.126Z,13.01
2023-03-19T03:07:34.196Z,12.95
2023-03-19T03:10:04.754Z,12.96
2023-03-19T03:12:35.110Z,12.99
2023-03-19T03:15:05.880Z,13.00
2023-03-19T03:17:39.629Z,13.01
2023-03-19T03:20:13.012Z,13.01
2023-03-19T03:22:43.770Z,13.02
2023-03-19T03:25:15.215Z,13.04
2023-03-19T03:27:45.786Z,13.02
2023-03-19T03:30:17.713Z,13.04
2023-03-19T03:32:48.453Z,13.08
2023-03-19T03:35:23.521Z,13.09
2023-03-19T03:37:54.714Z,13.07
2023-03-19T03:40:25.053Z,13.06
2023-03-19T03:42:55.687Z,13.08
2023-03-19T03:45:27.219Z,13.10
2023-03-19T03:47:57.775Z,13.12
2023-03-19T03:50:28.309Z,13.14
2023-03-19T03:53:02.433Z,13.12
2023-03-19T03:55:34.600Z,13.12
2023-03-19T03:58:06.264Z,13.13
2023-03-19T04:00:36.907Z,13.14
2023-03-19T04:03:07.891Z,13.17
2023-03-19T04:05:39.482Z,13.15
2023-03-19T04:08:11.094Z,13.19
2023-03-19T04:10:44.452Z,13.24
2023-03-19T04:13:15.595Z,13.25
2023-03-19T04:15:46.952Z,13.28
2023-03-19T04:18:18.300Z,13.29
2023-03-19T04:20:49.230Z,13.30
2023-03-19T04:23:19.708Z,13.26
2023-03-19T04:25:50.069Z,13.31
2023-03-19T04:28:20.533Z,13.31
2023-03-19T04:30:51.011Z,13.25
2023-03-19T04:33:22.424Z,13.26
2023-03-19T04:35:53.438Z,13.26
2023-03-19T04:38:25.447Z,13.33
2023-03-19T04:40:56.627Z,13.32
2023-03-19T04:43:28.059Z,13.33
2023-03-19T04:45:58.538Z,13.34
2023-03-19T04:48:28.998Z,13.33
2023-03-19T04:50:59.858Z,13.35
2023-03-19T04:53:30.459Z,13.35
2023-03-19T04:56:01.208Z,13.40
2023-03-19T04:58:32.717Z,13.42
2023-03-19T05:01:05.685Z,13.46
2023-03-19T05:03:59.250Z,13.46
2023-03-19T05:06:29.817Z,13.46
2023-03-19T05:09:01.069Z,13.49
2023-03-19T05:11:31.549Z,13.49
2023-03-19T05:14:19.645Z,13.49
2023-03-19T05:17:12.835Z,13.50
2023-03-19T05:20:09.697Z,13.51
2023-03-19T05:22:41.589Z,13.56
2023-03-19T05:25:11.960Z,13.54
2023-03-19T05:27:44.202Z,13.54
2023-03-19T05:30:20.976Z,13.54
2023-03-19T05:33:12.070Z,13.56
2023-03-19T05:35:44.892Z,13.62
2023-03-19T05:38:22.605Z,13.63
2023-03-19T05:41:09.732Z,13.59
2023-03-19T05:43:51.392Z,13.60
2023-03-19T05:46:37.179Z,13.61
2023-03-19T05:49:07.976Z,13.66
2023-03-19T05:51:38.681Z,13.67
2023-03-19T05:54:10.597Z,13.65
2023-03-19T05:57:14.000Z,13.62
2023-03-19T06:00:06.631Z,13.68
2023-03-19T06:02:38.396Z,13.66
2023-03-19T06:05:40.835Z,13.69
2023-03-19T06:08:31.415Z,13.69
2023-03-19T06:11:12.397Z,13.70
2023-03-19T06:13:45.020Z,13.71
2023-03-19T06:16:19.072Z,13.69
2023-03-19T06:18:57.059Z,13.79
2023-03-19T06:21:31.024Z,13.73
2023-03-19T06:24:05.010Z,13.76
2023-03-19T06:26:39.033Z,13.83
2023-03-19T06:29:17.243Z,13.86
2023-03-19T06:31:52.480Z,13.86
2023-03-19T06:34:29.892Z,13.81
2023-03-19T06:37:00.272Z,13.84
2023-03-19T06:39:30.792Z,13.85
2023-03-19T06:42:02.038Z,13.87
2023-03-19T06:44:32.474Z,13.88
2023-03-19T06:47:03.737Z,13.91
2023-03-19T06:49:34.636Z,13.94
2023-03-19T06:52:05.074Z,13.96
2023-03-19T06:54:38.377Z,13.91
2023-03-19T06:57:09.023Z,13.95
2023-03-19T06:59:39.423Z,13.96
2023-03-19T07:02:11.952Z,13.97
2023-03-19T07:04:42.872Z,14.02
2023-03-19T07:07:13.308Z,14.04
2023-03-19T07:09:43.544Z,14.05
2023-03-19T07:12:13.868Z,14.08
2023-03-19T07:14:44.560Z,14.07
2023-03-19T07:17:15.088Z,14.06
2023-03-19T07:19:45.802Z,14.07
2023-03-19T07:22:16.326Z,14.08
2023-03-19T07:24:47.056Z,14.09
2023-03-19T07:27:18.051Z,14.15
2023-03-19T07:29:48.923Z,14.21
2023-03-19T07:32:19.935Z,14.27
2023-03-19T07:34:50.626Z,14.29
2023-03-19T07:37:22.612Z,14.33
2023-03-19T07:39:53.671Z,14.35
2023-03-19T07:42:23.980Z,14.36
2023-03-19T07:44:54.489Z,14.33
2023-03-19T07:47:29.287Z,14.41
2023-03-19T07:50:00.682Z,14.36
2023-03-19T07:52:31.069Z,14.33
2023-03-19T07:55:01.742Z,14.31
2023-03-19T07:57:33.064Z,14.32
2023-03-19T08:00:03.784Z,14.29
2023-03-19T08:02:44.381Z,14.29
2023-03-19T08:05:14.925Z,14.29
2023-03-19T08:07:46.468Z,14.24
2023-03-19T08:10:17.759Z,14.28
2023-03-19T08:12:48.175Z,14.28
2023-03-19T08:15:18.831Z,14.23
2023-03-19T08:17:50.611Z,14.20
2023-03-19T08:20:22.763Z,14.18
2023-03-19T08:22:53.482Z,14.18
2023-03-19T08:25:24.002Z,14.17
2023-03-19T08:27:54.512Z,14.16
2023-03-19T08:30:25.167Z,14.14
2023-03-19T08:32:55.745Z,14.16
2023-03-19T08:35:28.593Z,14.15
2023-03-19T08:37:59.215Z,14.12
2023-03-19T08:40:30.268Z,14.16
2023-03-19T08:43:00.537Z,14.16
2023-03-19T08:45:31.046Z,14.12
2023-03-19T08:48:01.849Z,14.12
2023-03-19T08:50:32.788Z,14.10
2023-03-19T08:53:03.465Z,14.06
2023-03-19T08:55:33.801Z,14.08
2023-03-19T08:58:04.124Z,14.07
2023-03-19T09:00:34.647Z,14.11
2023-03-19T09:03:05.205Z,14.08
2023-03-19T09:05:35.802Z,14.05
2023-03-19T09:08:07.050Z,14.04
2023-03-19T09:10:37.924Z,14.04
2023-03-19T09:13:08.655Z,14.03
2023-03-19T09:15:39.036Z,14.02
2023-03-19T09:18:10.191Z,14.02
2023-03-19T09:20:41.352Z,14.02
2023-03-19T09:23:11.878Z,14.04
2023-03-19T09:25:43.152Z,14.02
2023-03-19T09:28:13.968Z,14.01
2023-03-19T09:30:44.972Z,14.03
2023-03-19T09:33:15.600Z,14.02
2023-03-19T09:35:50.674Z,14.03
2023-03-19T09:38:22.745Z,14.03
2023-03-19T09:41:11.346Z,13.99
2023-03-19T09:44:05.468Z,14.02
2023-03-19T09:46:56.008Z,14.01
2023-03-19T09:49:33.929Z,14.00
2023-03-19T09:52:39.229Z,14.00
2023-03-19T09:55:34.403Z,13.98
2023-03-19T09:58:12.741Z,13.98
2023-03-19T10:00:44.979Z,13.98
2023-03-19T10:03:33.373Z,13.97
2023-03-19T10:06:31.589Z,13.96
2023-03-19T10:09:20.088Z,13.95
2023-03-19T10:12:23.667Z,13.94
2023-03-19T10:15:17.693Z,13.95
2023-03-19T10:17:48.834Z,13.95
2023-03-19T10:20:51.458Z,13.92
2023-03-19T10:23:34.076Z,13.92
2023-03-19T10:26:08.815Z,13.92
2023-03-19T10:28:41.463Z,13.90
2023-03-19T10:31:29.116Z,13.92
2023-03-19T10:34:05.453Z,13.90
2023-03-19T10:36:38.439Z,13.89
2023-03-19T10:39:09.384Z,13.90
2023-03-19T10:41:52.668Z,13.88
2023-03-19T10:44:44.886Z,13.86
2023-03-19T10:47:18.151Z,13.86
2023-03-19T10:49:49.182Z,13.86
2023-03-19T10:52:31.569Z,13.85
2023-03-19T10:55:31.770Z,13.86
2023-03-19T10:58:08.646Z,13.84
2023-03-19T11:00:39.716Z,13.82
2023-03-19T11:03:30.822Z,13.84
2023-03-19T11:06:22.647Z,13.82
2023-03-19T11:09:00.775Z,13.76
2023-03-19T11:11:39.102Z,13.82
2023-03-19T11:14:17.532Z,13.80
2023-03-19T11:17:18.868Z,13.77
2023-03-19T11:20:18.033Z,13.72
2023-03-19T11:22:49.088Z,13.77
2023-03-19T11:25:44.768Z,13.77
2023-03-19T11:28:21.839Z,13.76
2023-03-19T11:31:16.762Z,13.72
2023-03-19T11:34:12.093Z,13.72
2023-03-19T11:37:05.123Z,13.71
2023-03-19T11:39:56.996Z,13.72
2023-03-19T11:42:46.812Z,13.72
2023-03-19T11:45:29.327Z,13.69
2023-03-19T11:48:19.235Z,13.71
2023-03-19T11:50:55.487Z,13.70
2023-03-19T11:53:45.804Z,13.68
2023-03-19T11:56:37.356Z,13.68
2023-03-19T11:59:34.134Z,13.70
2023-03-19T12:02:22.912Z,13.70
2023-03-19T12:05:03.122Z,13.68
2023-03-19T12:07:51.559Z,13.67
2023-03-19T12:11:14.649Z,13.67
2023-03-19T12:13:50.736Z,13.67
2023-03-19T12:16:46.476Z,13.67
2023-03-19T12:19:35.461Z,13.64
2023-03-19T12:22:43.713Z,13.65
2023-03-19T12:25:46.462Z,13.63
2023-03-19T12:28:23.310Z,13.61
2023-03-19T12:31:11.968Z,13.59
2023-03-19T12:33:57.985Z,13.59
2023-03-19T12:36:33.712Z,13.59
2023-03-19T12:39:17.049Z,13.59
2023-03-19T12:41:51.570Z,13.57
2023-03-19T12:44:33.199Z,13.57
2023-03-19T12:47:14.499Z,13.57
2023-03-19T12:49:59.064Z,13.55
2023-03-19T12:52:32.828Z,13.56
2023-03-19T12:55:24.820Z,13.55
2023-03-19T12:58:05.966Z,13.53
2023-03-19T13:00:45.352Z,13.52
2023-03-19T13:03:21.308Z,13.53
2023-03-19T13:06:02.729Z,13.51
2023-03-19T13:09:01.908Z,13.50
2023-03-19T13:11:50.018Z,13.48
2023-03-19T13:14:38.961Z,13.48
2023-03-19T13:17:47.173Z,13.47
2023-03-19T13:20:52.525Z,13.48
2023-03-19T13:23:31.414Z,13.45
2023-03-19T13:26:06.165Z,13.45
2023-03-19T13:28:55.317Z,13.45
2023-03-19T13:31:30.575Z,13.44
2023-03-19T13:34:05.478Z,13.43
2023-03-19T13:36:43.877Z,13.44
2023-03-19T13:39:19.454Z,13.42
2023-03-19T13:42:01.232Z,13.40
2023-03-19T13:44:36.014Z,13.40
2023-03-19T13:47:35.089Z,13.39
2023-03-19T13:50:17.514Z,13.37
2023-03-19T13:52:47.850Z,13.36
2023-03-19T13:55:29.910Z,13.38
2023-03-19T13:58:35.562Z,13.35
2023-03-19T14:01:09.053Z,13.35
2023-03-19T14:03:55.666Z,13.35
2023-03-19T14:06:35.038Z,13.34
2023-03-19T14:09:07.659Z,13.33
2023-03-19T14:11:39.838Z,13.32
2023-03-19T14:14:17.283Z,13.31
2023-03-19T14:16:48.437Z,13.31
2023-03-19T14:19:22.657Z,13.32
2023-03-19T14:22:05.745Z,13.31
2023-03-19T14:24:56.605Z,13.30
2023-03-19T14:27:48.501Z,13.28
2023-03-19T14:30:37.766Z,13.27
2023-03-19T14:33:19.436Z,13.26
2023-03-19T14:35:51.998Z,13.27
2023-03-19T14:38:34.794Z,13.25
2023-03-19T14:41:06.959Z,13.25
2023-03-19T14:43:58.703Z,13.25
2023-03-19T14:46:47.773Z,13.23
2023-03-19T14:50:01.720Z,13.22
2023-03-19T14:52:37.406Z,13.22
2023-03-19T14:55:19.254Z,13.20
2023-03-19T14:58:25.723Z,13.20
2023-03-19T15:02:08.980Z,13.19
2023-03-19T15:05:00.498Z,13.19
2023-03-19T15:08:10.072Z,13.19
2023-03-19T15:11:30.420Z,13.16
2023-03-19T15:14:18.896Z,13.15
2023-03-19T15:17:42.570Z,13.15
2023-03-19T15:20:57.580Z,13.15
2023-03-19T15:23:47.524Z,13.12
2023-03-19T15:26:39.835Z,13.12
2023-03-19T15:29:29.419Z,13.11
2023-03-19T15:32:52.243Z,13.09
2023-03-19T15:35:30.751Z,13.11
2023-03-19T15:38:05.035Z,13.09
2023-03-19T15:40:37.866Z,13.08
2023-03-19T15:43:11.326Z,13.09
2023-03-19T15:45:44.341Z,13.06
2023-03-19T15:48:23.872Z,13.06
2023-03-19T15:51:01.728Z,13.05
2023-03-19T15:53:36.457Z,13.04
2023-03-19T15:56:07.902Z,13.02
2023-03-19T15:58:48.576Z,13.04
2023-03-19T16:01:20.923Z,13.02
2023-03-19T16:04:04.214Z,13.01
2023-03-19T16:06:40.974Z,13.01
2023-03-19T16:09:17.282Z,13.00
2023-03-19T16:11:49.156Z,12.99
2023-03-19T16:14:27.601Z,13.01
2023-03-19T16:17:15.736Z,12.99
2023-03-19T16:20:00.147Z,12.99
2023-03-19T16:22:34.978Z,12.97
2023-03-19T16:25:09.245Z,12.98
2023-03-19T16:27:44.403Z,12.95
2023-03-19T16:30:24.609Z,12.95
2023-03-19T16:33:06.562Z,12.94
2023-03-19T16:35:39.169Z,12.94
2023-03-19T16:38:31.542Z,12.93
2023-03-19T16:41:24.961Z,12.92
2023-03-19T16:43:56.886Z,12.93
2023-03-19T16:46:28.639Z,12.91
2023-03-19T16:48:58.841Z,12.91
2023-03-19T16:51:29.123Z,12.89
2023-03-19T16:53:59.407Z,12.90
2023-03-19T16:56:29.970Z,12.89
2023-03-19T16:59:04.336Z,12.88
2023-03-19T17:01:34.930Z,12.85
2023-03-19T17:04:14.712Z,12.85
2023-03-19T17:06:45.623Z,12.85
2023-03-19T17:09:15.972Z,12.84
2023-03-19T17:11:46.769Z,12.82
2023-03-19T17:14:23.489Z,12.83
2023-03-19T17:16:53.951Z,12.82
2023-03-19T17:19:33.665Z,12.82
2023-03-19T17:22:04.911Z,12.81
2023-03-19T17:24:36.356Z,12.81
2023-03-19T17:27:07.152Z,12.79
2023-03-19T17:29:37.516Z,12.79
2023-03-19T17:32:15.430Z,12.77
2023-03-19T17:34:45.872Z,12.77
2023-03-19T17:37:17.226Z,12.76
2023-03-19T17:39:48.539Z,12.75
2023-03-19T17:42:24.989Z,12.75
2023-03-19T17:44:58.265Z,12.75
2023-03-19T17:47:28.689Z,12.73
2023-03-19T17:49:59.786Z,12.75
2023-03-19T17:52:31.907Z,12.74
2023-03-19T17:55:02.495Z,12.73
2023-03-19T17:57:33.274Z,12.72
2023-03-19T18:00:03.876Z,12.71
2023-03-19T18:02:37.228Z,12.72
2023-03-19T18:05:08.919Z,12.70
2023-03-19T18:07:39.233Z,12.72
2023-03-19T18:10:13.431Z,12.69
2023-03-19T18:12:43.918Z,12.68
2023-03-19T18:15:15.251Z,12.67
2023-03-19T18:17:59.230Z,12.66
2023-03-19T18:20:31.043Z,12.66
2023-03-19T18:23:02.199Z,12.66
2023-03-19T18:25:37.208Z,12.66
2023-03-19T18:28:08.398Z,12.62
2023-03-19T18:30:41.406Z,12.62
2023-03-19T18:33:27.855Z,12.62
2023-03-19T18:35:59.741Z,12.63
2023-03-19T18:38:30.153Z,12.60
2023-03-19T18:41:00.763Z,12.58
2023-03-19T18:43:31.354Z,12.58
2023-03-19T18:46:02.199Z,12.57
2023-03-19T18:48:33.856Z,12.56
2023-03-19T18:51:04.202Z,12.55
2023-03-19T18:53:34.837Z,12.56
2023-03-19T18:56:09.381Z,12.58
2023-03-19T18:58:40.984Z,12.54
2023-03-19T19:01:16.445Z,12.55
2023-03-19T19:03:49.443Z,12.53
2023-03-19T19:06:46.020Z,12.53
2023-03-19T19:09:17.717Z,12.53
2023-03-19T19:11:50.071Z,12.52
2023-03-19T19:14:23.477Z,12.51
2023-03-19T19:16:55.682Z,12.51
2023-03-19T19:19:29.138Z,12.50
2023-03-19T19:21:59.597Z,12.49
2023-03-19T19:24:30.113Z,12.49
2023-03-19T19:27:03.030Z,12.50
2023-03-19T19:29:33.993Z,12.49
2023-03-19T19:32:05.942Z,12.48
2023-03-19T19:34:36.338Z,12.46
2023-03-19T19:37:06.854Z,12.43
2023-03-19T19:39:37.287Z,12.43
2023-03-19T19:42:07.894Z,12.43
2023-03-19T19:44:39.114Z,12.45
2023-03-19T19:47:17.181Z,12.43
2023-03-19T19:49:47.688Z,12.43
2023-03-19T19:52:20.434Z,12.41
2023-03-19T19:54:53.205Z,12.43
2023-03-19T19:57:28.441Z,12.41
2023-03-19T19:59:59.130Z,12.42
2023-03-19T20:02:31.333Z,12.39
2023-03-19T20:05:01.734Z,12.40
2023-03-19T20:07:32.238Z,12.39
2023-03-19T20:10:02.722Z,12.38
2023-03-19T20:12:34.985Z,12.39
2023-03-19T20:15:05.684Z,12.38
2023-03-19T20:17:36.155Z,12.37
2023-03-19T20:20:14.849Z,12.35
2023-03-19T20:22:45.432Z,12.34
2023-03-19T20:25:16.407Z,12.35
2023-03-19T20:27:48.354Z,12.31
2023-03-19T20:30:33.885Z,12.31
2023-03-19T20:33:05.219Z,12.32
2023-03-19T20:35:38.360Z,12.31
2023-03-19T20:38:09.068Z,12.31
2023-03-19T20:40:53.552Z,12.31
2023-03-19T20:43:36.098Z,12.30
2023-03-19T20:46:09.230Z,12.29
2023-03-19T20:48:40.350Z,12.26
2023-03-19T20:51:20.073Z,12.26
2023-03-19T20:53:52.135Z,12.25
2023-03-19T20:56:28.810Z,12.23
2023-03-19T20:59:00.106Z,12.10
2023-03-19T21:01:30.617Z,12.07
2023-03-19T21:04:01.010Z,12.05
2023-03-19T21:06:46.064Z,12.12
2023-03-19T21:09:20.511Z,12.56
2023-03-19T21:11:50.837Z,12.77
2023-03-19T21:14:21.836Z,13.01
2023-03-19T21:16:52.535Z,13.19
2023-03-19T21:19:23.884Z,13.31
2023-03-19T21:21:54.282Z,13.46
2023-03-19T21:24:26.231Z,13.54
2023-03-19T21:26:57.638Z,13.68
2023-03-19T21:29:34.965Z,13.84
2023-03-19T21:32:06.032Z,13.94
2023-03-19T21:34:36.475Z,13.96
2023-03-19T21:37:07.676Z,13.96
2023-03-19T21:39:38.110Z,14.01
2023-03-19T21:42:10.750Z,14.04
2023-03-19T21:44:41.466Z,14.03
2023-03-19T21:47:19.048Z,14.01
2023-03-19T21:49:51.389Z,14.05
2023-03-19T21:52:23.566Z,14.20
2023-03-19T21:54:54.009Z,14.25
2023-03-19T21:57:25.554Z,14.19
2023-03-19T21:59:56.186Z,14.20
2023-03-19T22:02:29.353Z,14.24
2023-03-19T22:05:00.123Z,14.35
2023-03-19T22:07:30.378Z,14.42
2023-03-19T22:10:01.201Z,14.52
2023-03-19T22:12:34.597Z,14.66
2023-03-19T22:15:05.729Z,14.66
2023-03-19T22:17:36.497Z,14.68
2023-03-19T22:20:07.289Z,14.66
2023-03-19T22:22:37.644Z,14.62
2023-03-19T22:25:08.419Z,14.57
2023-03-19T22:27:39.032Z,14.57
2023-03-19T22:30:20.748Z,14.57
2023-03-19T22:32:52.785Z,14.61
2023-03-19T22:35:23.264Z,14.74
2023-03-19T22:37:53.619Z,14.72
2023-03-19T22:40:23.994Z,14.72
2023-03-19T22:42:55.530Z,14.68
2023-03-19T22:45:31.999Z,14.68
2023-03-19T22:48:02.689Z,14.73
2023-03-19T22:50:34.420Z,14.76
2023-03-19T22:53:05.021Z,14.78
2023-03-19T22:55:37.167Z,14.81
2023-03-19T22:58:07.835Z,14.76
2023-03-19T23:00:38.354Z,14.79
2023-03-19T23:03:16.384Z,14.79
2023-03-19T23:05:50.378Z,14.85
2023-03-19T23:08:21.251Z,14.91
2023-03-19T23:10:53.417Z,14.89
2023-03-19T23:13:24.825Z,14.92
2023-03-19T23:16:02.475Z,14.77
2023-03-19T23:18:38.666Z,14.68
2023-03-19T23:21:13.333Z,14.56
2023-03-19T23:23:44.723Z,14.45
2023-03-19T23:26:38.348Z,14.30
2023-03-19T23:29:08.985Z,14.25
2023-03-19T23:31:39.661Z,14.22
2023-03-19T23:34:13.393Z,14.16
2023-03-19T23:36:45.156Z,14.10
2023-03-19T23:39:15.650Z,14.07
2023-03-19T23:41:52.374Z,14.04
2023-03-19T23:44:23.625Z,14.01
2023-03-19T23:46:55.013Z,13.98
2023-03-19T23:49:31.830Z,13.91
2023-03-19T23:52:03.829Z,13.92
2023-03-19T23:54:38.547Z,13.85
2023-03-19T23:57:14.852Z,13.83
2023-03-19T23:59:47.344Z,13.82
